createdAt,value
2024-04-19T00:02:02.556Z,1.48
2024-04-19T00:04:29.574Z,1.60
2024-04-19T00:06:56.665Z,1.10
2024-04-19T00:09:24.165Z,1.30
2024-04-19T00:11:51.053Z,1.50
2024-04-19T00:14:18.149Z,1.20
2024-04-19T00:16:45.201Z,1.10
2024-04-19T00:19:12.035Z,1.60
2024-04-19T00:21:39.032Z,1.50
2024-04-19T00:24:06.394Z,1.30
2024-04-19T00:26:33.264Z,1.30
2024-04-19T00:29:00.154Z,1.20
2024-04-19T00:31:27.128Z,1.13
2024-04-19T00:33:54.130Z,1.17
2024-04-19T00:36:20.995Z,1.20
2024-04-19T00:38:47.952Z,1.10
2024-04-19T00:41:15.116Z,1.23
2024-04-19T00:43:42.029Z,0.88
2024-04-19T00:46:09.330Z,1.00
2024-04-19T00:48:37.268Z,1.38
2024-04-19T00:51:05.865Z,1.10
2024-04-19T00:53:34.363Z,1.15
2024-04-19T00:56:03.339Z,1.08
2024-04-19T00:58:31.038Z,1.10
2024-04-19T01:01:03.615Z,1.10
2024-04-19T01:03:32.306Z,1.45
2024-04-19T01:05:59.347Z,0.90
2024-04-19T01:08:28.906Z,1.00
2024-04-19T01:10:55.950Z,1.38
2024-04-19T01:13:22.914Z,0.90
2024-04-19T01:15:49.865Z,0.88
2024-04-19T01:18:17.123Z,0.95
2024-04-19T01:20:45.277Z,1.20
2024-04-19T01:23:17.354Z,1.33
2024-04-19T01:28:13.075Z,1.30
2024-04-19T01:30:42.039Z,1.00
2024-04-19T01:33:09.129Z,0.90
2024-04-19T01:35:36.186Z,1.20
2024-04-19T01:38:03.441Z,1.00
2024-04-19T01:40:30.315Z,1.20
2024-04-19T01:42:57.181Z,1.13
2024-04-19T01:45:24.149Z,1.13
2024-04-19T01:47:51.297Z,1.00
2024-04-19T01:50:18.239Z,1.00
2024-04-19T01:52:45.170Z,1.10
2024-04-19T01:55:12.042Z,1.10
2024-04-19T01:57:39.021Z,1.10
2024-04-19T02:00:06.885Z,1.00
2024-04-19T02:02:33.887Z,1.10
2024-04-19T02:05:00.864Z,0.90
2024-04-19T02:07:27.688Z,1.08
2024-04-19T02:09:54.888Z,1.00
2024-04-19T02:12:21.735Z,1.05
2024-04-19T02:14:48.794Z,1.02
2024-04-19T02:17:16.169Z,1.20
2024-04-19T02:19:44.800Z,1.02
2024-04-19T02:22:11.846Z,1.00
2024-04-19T02:24:41.354Z,0.80
2024-04-19T02:27:19.474Z,1.02
2024-04-19T02:30:18.610Z,1.00
2024-04-19T02:32:45.812Z,1.05
2024-04-19T02:35:13.187Z,1.13
2024-04-19T02:37:40.219Z,1.10
2024-04-19T02:40:08.129Z,0.93
2024-04-19T02:42:35.260Z,1.13
2024-04-19T02:45:02.539Z,1.00
2024-04-19T02:47:29.458Z,1.00
2024-04-19T02:49:56.526Z,0.98
2024-04-19T02:52:23.730Z,0.80
2024-04-19T02:54:50.739Z,1.10
2024-04-19T02:57:17.982Z,1.02
2024-04-19T02:59:44.933Z,1.13
2024-04-19T03:02:12.045Z,1.00
2024-04-19T03:04:40.149Z,0.98
2024-04-19T03:07:07.348Z,0.98
2024-04-19T03:09:34.496Z,0.93
2024-04-19T03:12:01.549Z,0.90
2024-04-19T03:14:28.541Z,0.80
2024-04-19T03:16:55.762Z,1.15
2024-04-19T03:19:22.737Z,0.95
2024-04-19T03:21:51.795Z,1.10
2024-04-19T03:24:18.726Z,1.45
2024-04-19T03:26:46.798Z,0.98
2024-04-19T03:29:15.686Z,1.05
2024-04-19T03:31:42.671Z,0.90
2024-04-19T03:34:09.656Z,1.02
2024-04-19T03:36:36.629Z,1.00
2024-04-19T03:39:04.730Z,1.10
2024-04-19T03:41:34.598Z,1.00
2024-04-19T03:44:23.368Z,1.30
2024-04-19T03:46:50.311Z,1.10
2024-04-19T03:49:17.217Z,1.15
2024-04-19T03:51:44.196Z,1.20
2024-04-19T03:54:11.177Z,1.20
2024-04-19T03:56:38.067Z,1.10
2024-04-19T03:59:04.978Z,1.10
2024-04-19T04:01:31.926Z,1.10
2024-04-19T04:03:59.383Z,0.85
2024-04-19T04:06:26.563Z,0.88
2024-04-19T04:08:53.424Z,1.00
2024-04-19T04:11:20.277Z,0.90
2024-04-19T04:13:47.238Z,0.90
2024-04-19T04:16:14.198Z,0.90
2024-04-19T04:18:44.071Z,0.90
2024-04-19T04:21:11.002Z,0.85
2024-04-19T04:23:37.883Z,0.80
2024-04-19T04:26:04.947Z,0.95
2024-04-19T04:28:31.788Z,1.10
2024-04-19T04:30:58.732Z,0.93
2024-04-19T04:33:25.656Z,0.85
2024-04-19T04:35:52.477Z,1.00
2024-04-19T04:38:19.399Z,1.08
2024-04-19T04:40:46.321Z,1.10
2024-04-19T04:43:16.046Z,0.88
2024-04-19T04:45:43.583Z,0.90
2024-04-19T04:48:10.492Z,0.95
2024-04-19T04:50:37.480Z,0.90
2024-04-19T04:53:04.619Z,1.00
2024-04-19T04:55:32.500Z,0.82
2024-04-19T04:58:00.647Z,1.00
2024-04-19T05:00:30.816Z,1.00
2024-04-19T05:02:59.957Z,0.88
2024-04-19T05:05:27.215Z,0.90
2024-04-19T05:07:54.077Z,0.90
2024-04-19T05:10:21.576Z,1.00
2024-04-19T05:12:48.792Z,1.10
2024-04-19T05:15:16.168Z,0.98
2024-04-19T05:17:45.863Z,0.88
2024-04-19T05:20:12.783Z,0.88
2024-04-19T05:22:39.810Z,0.80
2024-04-19T05:25:08.678Z,0.70
2024-04-19T05:27:36.109Z,0.90
2024-04-19T05:30:03.201Z,0.88
2024-04-19T05:32:30.162Z,0.90
2024-04-19T05:34:57.062Z,0.80
2024-04-19T05:37:23.900Z,1.50
2024-04-19T05:39:50.829Z,0.80
2024-04-19T05:42:17.729Z,0.70
2024-04-19T05:44:44.814Z,0.98
2024-04-19T05:47:11.797Z,0.80
2024-04-19T05:49:38.746Z,0.80
2024-04-19T05:52:05.646Z,0.70
2024-04-19T05:54:34.519Z,0.70
2024-04-19T05:57:02.969Z,1.00
2024-04-19T05:59:29.821Z,0.80
2024-04-19T06:01:57.540Z,1.00
2024-04-19T06:04:24.693Z,0.90
2024-04-19T06:06:51.562Z,0.90
2024-04-19T06:09:18.514Z,0.90
2024-04-19T06:11:45.509Z,1.10
2024-04-19T06:14:12.334Z,0.85
2024-04-19T06:16:39.167Z,0.80
2024-04-19T06:19:06.249Z,0.90
2024-04-19T06:21:35.715Z,0.90
2024-04-19T06:24:02.546Z,1.00
2024-04-19T06:26:29.408Z,1.15
2024-04-19T06:28:56.273Z,0.90
2024-04-19T06:31:23.285Z,0.60
2024-04-19T06:33:50.277Z,0.82
2024-04-19T06:36:17.268Z,0.70
2024-04-19T06:38:44.248Z,0.70
2024-04-19T06:41:11.206Z,0.95
2024-04-19T06:43:38.145Z,0.85
2024-04-19T06:46:05.046Z,0.90
2024-04-19T06:48:32.073Z,0.80
2024-04-19T06:50:59.069Z,0.77
2024-04-19T06:53:25.899Z,0.90
2024-04-19T06:55:54.133Z,0.80
2024-04-19T06:58:21.135Z,0.80
2024-04-19T07:01:00.386Z,0.80
2024-04-19T07:03:35.885Z,0.80
2024-04-19T07:06:20.181Z,0.80
2024-04-19T07:08:54.428Z,0.75
2024-04-19T07:11:21.595Z,0.70
2024-04-19T07:13:49.056Z,0.80
2024-04-19T07:16:16.228Z,0.70
2024-04-19T07:18:46.582Z,0.88
2024-04-19T07:21:13.696Z,0.90
2024-04-19T07:23:40.535Z,0.90
2024-04-19T07:26:07.434Z,0.90
2024-04-19T07:28:34.513Z,0.60
2024-04-19T07:31:01.875Z,0.80
2024-04-19T07:33:28.970Z,0.60
2024-04-19T07:35:55.838Z,0.80
2024-04-19T07:38:22.658Z,0.70
2024-04-19T07:40:49.508Z,0.70
2024-04-19T07:43:16.389Z,0.80
2024-04-19T07:45:44.563Z,0.80
2024-04-19T07:48:12.198Z,0.77
2024-04-19T07:50:40.816Z,0.73
2024-04-19T07:53:09.780Z,0.60
2024-04-19T07:55:40.125Z,0.75
2024-04-19T07:58:07.211Z,0.88
2024-04-19T08:00:34.435Z,0.80
2024-04-19T08:03:01.474Z,0.60
2024-04-19T08:05:28.546Z,0.57
2024-04-19T08:07:57.401Z,0.65
2024-04-19T08:10:25.583Z,0.80
2024-04-19T08:12:52.537Z,0.80
2024-04-19T08:15:20.075Z,0.70
2024-04-19T08:17:46.942Z,0.70
2024-04-19T08:20:13.986Z,0.65
2024-04-19T08:22:41.190Z,0.70
2024-04-19T08:25:08.063Z,0.63
2024-04-19T08:27:36.337Z,0.80
2024-04-19T08:30:03.567Z,0.55
2024-04-19T08:32:30.523Z,0.77
2024-04-19T08:34:59.930Z,0.65
2024-04-19T08:37:27.252Z,0.50
2024-04-19T08:39:54.535Z,0.50
2024-04-19T08:42:22.483Z,0.70
2024-04-19T08:44:51.216Z,0.60
2024-04-19T08:47:19.601Z,0.50
2024-04-19T08:49:47.110Z,0.60
2024-04-19T08:52:39.190Z,0.60
2024-04-19T08:55:07.473Z,0.57
2024-04-19T08:57:38.259Z,0.70
2024-04-19T09:00:13.899Z,0.65
2024-04-19T09:02:42.416Z,0.70
2024-04-19T09:05:09.356Z,0.70
2024-04-19T09:07:36.829Z,0.60
2024-04-19T09:10:06.008Z,0.75
2024-04-19T09:12:35.187Z,0.77
2024-04-19T09:15:02.598Z,0.63
2024-04-19T09:17:31.014Z,0.60
2024-04-19T09:19:58.467Z,0.80
2024-04-19T09:22:25.539Z,0.77
2024-04-19T09:24:55.440Z,0.60
2024-04-19T09:27:23.181Z,0.80
2024-04-19T09:29:51.769Z,0.60
2024-04-19T09:32:22.376Z,0.70
2024-04-19T09:34:49.904Z,0.80
2024-04-19T09:37:17.269Z,0.60
2024-04-19T09:39:44.187Z,0.70
2024-04-19T09:42:11.155Z,0.75
2024-04-19T09:44:41.850Z,0.70
2024-04-19T09:47:11.874Z,0.70
2024-04-19T09:49:44.625Z,0.50
2024-04-19T09:52:20.492Z,0.70
2024-04-19T09:54:54.263Z,0.70
2024-04-19T09:57:23.129Z,0.50
2024-04-19T09:59:50.545Z,0.70
2024-04-19T10:02:24.888Z,0.70
2024-04-19T10:05:00.031Z,0.73
2024-04-19T10:07:28.521Z,0.55
2024-04-19T10:09:56.211Z,0.60
2024-04-19T10:12:23.254Z,0.50
2024-04-19T10:14:50.209Z,0.60
2024-04-19T10:17:17.844Z,0.60
2024-04-19T10:19:52.745Z,0.63
2024-04-19T10:22:25.266Z,0.60
2024-04-19T10:25:03.393Z,0.68
2024-04-19T10:27:31.348Z,0.70
2024-04-19T10:30:13.830Z,0.70
2024-04-19T10:32:53.788Z,0.60
2024-04-19T10:35:22.563Z,0.68
2024-04-19T10:37:49.504Z,0.50
2024-04-19T10:40:16.372Z,0.50
2024-04-19T10:42:43.337Z,0.52
2024-04-19T10:45:17.363Z,0.60
2024-04-19T10:47:45.230Z,0.60
2024-04-19T10:50:12.290Z,0.55
2024-04-19T10:52:39.272Z,0.60
2024-04-19T10:55:06.535Z,0.57
2024-04-19T10:57:33.562Z,0.57
2024-04-19T11:00:01.863Z,0.60
2024-04-19T11:02:30.674Z,0.50
2024-04-19T11:04:58.004Z,0.60
2024-04-19T11:07:25.474Z,0.60
2024-04-19T11:09:52.916Z,0.63
2024-04-19T11:12:20.043Z,0.60
2024-04-19T11:14:47.031Z,0.50
2024-04-19T11:17:13.907Z,0.80
2024-04-19T11:19:40.992Z,0.50
2024-04-19T11:22:08.125Z,0.60
2024-04-19T11:24:35.707Z,0.60
2024-04-19T11:27:03.277Z,0.40
2024-04-19T11:29:30.732Z,0.57
2024-04-19T11:31:57.714Z,0.50
2024-04-19T11:34:32.550Z,0.40
2024-04-19T11:37:05.141Z,0.60
2024-04-19T11:39:32.909Z,0.50
2024-04-19T11:42:00.683Z,0.65
2024-04-19T11:44:27.942Z,0.70
2024-04-19T11:46:55.456Z,0.50
2024-04-19T11:49:23.713Z,0.52
2024-04-19T11:51:50.663Z,0.80
2024-04-19T11:54:18.235Z,0.90
2024-04-19T11:56:45.251Z,0.80
2024-04-19T11:59:22.093Z,0.80
2024-04-19T12:01:51.583Z,0.75
2024-04-19T12:04:20.559Z,0.80
2024-04-19T12:06:48.485Z,0.80
2024-04-19T12:09:15.516Z,1.00
2024-04-19T12:12:06.164Z,0.85
2024-04-19T12:15:22.669Z,0.70
2024-04-19T12:17:27.128Z,0.95
2024-04-19T12:19:56.880Z,1.00
2024-04-19T12:22:26.547Z,0.70
2024-04-19T12:24:55.032Z,1.00
2024-04-19T12:27:22.483Z,0.90
2024-04-19T12:29:49.708Z,0.80
2024-04-19T12:32:16.907Z,1.00
2024-04-19T12:34:44.725Z,1.00
2024-04-19T12:37:11.931Z,0.80
2024-04-19T12:39:38.857Z,1.00
2024-04-19T12:42:06.188Z,0.82
2024-04-19T12:44:33.147Z,1.10
2024-04-19T12:47:00.285Z,0.85
2024-04-19T12:49:27.330Z,0.98
2024-04-19T12:51:56.351Z,0.90
2024-04-19T12:54:23.477Z,0.82
2024-04-19T12:56:50.598Z,1.10
2024-04-19T12:59:17.471Z,0.80
2024-04-19T13:01:44.451Z,0.80
2024-04-19T13:04:11.515Z,0.80
2024-04-19T13:06:38.683Z,0.70
2024-04-19T13:09:05.679Z,0.85
2024-04-19T13:11:32.801Z,0.95
2024-04-19T13:14:01.102Z,0.80
2024-04-19T13:16:30.774Z,1.00
2024-04-19T13:18:57.951Z,1.10
2024-04-19T13:21:28.117Z,0.80
2024-04-19T13:23:58.371Z,0.90
2024-04-19T13:26:26.283Z,1.10
2024-04-19T13:28:55.595Z,0.80
2024-04-19T13:31:23.300Z,1.20
2024-04-19T13:33:50.243Z,0.80
2024-04-19T13:36:18.806Z,0.90
2024-04-19T13:38:46.758Z,0.70
2024-04-19T13:41:13.671Z,0.75
2024-04-19T13:43:40.865Z,0.80
2024-04-19T13:46:07.896Z,0.90
2024-04-19T13:48:39.016Z,1.10
2024-04-19T13:51:07.384Z,1.10
2024-04-19T13:53:36.847Z,0.80
2024-04-19T13:56:04.533Z,0.73
2024-04-19T13:58:32.121Z,1.08
2024-04-19T14:00:59.112Z,1.00
2024-04-19T14:03:25.993Z,0.80
2024-04-19T14:05:52.872Z,0.95
2024-04-19T14:08:19.872Z,0.90
2024-04-19T14:10:47.915Z,0.80
2024-04-19T14:13:15.722Z,1.02
2024-04-19T14:15:45.071Z,1.10
2024-04-19T14:18:11.945Z,1.02
2024-04-19T14:20:41.394Z,0.82
2024-04-19T14:23:08.181Z,0.90
2024-04-19T14:25:36.879Z,1.10
2024-04-19T14:28:03.890Z,0.57
2024-04-19T14:30:30.719Z,0.70
2024-04-19T14:32:58.788Z,0.80
2024-04-19T14:35:25.972Z,0.77
2024-04-19T14:37:54.491Z,0.80
2024-04-19T14:40:22.374Z,0.80
2024-04-19T14:42:50.604Z,0.80
2024-04-19T14:45:19.053Z,0.70
2024-04-19T14:47:46.179Z,0.77
2024-04-19T14:50:13.179Z,0.90
2024-04-19T14:52:45.134Z,0.80
2024-04-19T14:55:17.697Z,0.85
2024-04-19T14:57:44.769Z,0.98
2024-04-19T15:00:12.167Z,0.80
2024-04-19T15:02:39.179Z,0.70
2024-04-19T15:05:06.455Z,0.80
2024-04-19T15:07:33.427Z,0.90
2024-04-19T15:10:01.219Z,0.70
2024-04-19T15:12:28.154Z,0.60
2024-04-19T15:14:55.896Z,0.80
2024-04-19T15:17:22.818Z,0.80
2024-04-19T15:19:49.656Z,0.80
2024-04-19T15:22:16.548Z,0.80
2024-04-19T15:24:43.503Z,0.90
2024-04-19T15:27:10.402Z,0.60
2024-04-19T15:29:37.523Z,1.40
2024-04-19T15:32:04.690Z,0.77
2024-04-19T15:34:41.741Z,0.90
2024-04-19T15:37:14.561Z,0.60
2024-04-19T15:39:41.599Z,0.70
2024-04-19T15:42:12.285Z,0.80
2024-04-19T15:44:42.405Z,0.77
2024-04-19T15:47:16.004Z,0.80
2024-04-19T15:49:45.212Z,0.80
2024-04-19T15:52:12.228Z,0.60
2024-04-19T15:54:39.302Z,0.50
2024-04-19T15:57:06.160Z,0.70
2024-04-19T15:59:33.432Z,0.60
2024-04-19T16:02:00.244Z,1.10
2024-04-19T16:04:27.320Z,0.90
2024-04-19T16:06:54.394Z,0.75
2024-04-19T16:09:21.281Z,0.57
2024-04-19T16:11:48.192Z,0.57
2024-04-19T16:14:15.165Z,0.60
2024-04-19T16:16:43.630Z,0.70
2024-04-19T16:19:10.767Z,0.65
2024-04-19T16:21:38.715Z,0.60
2024-04-19T16:24:06.103Z,0.73
2024-04-19T16:26:34.387Z,0.55
2024-04-19T16:29:01.687Z,0.40
2024-04-19T16:31:29.478Z,0.70
2024-04-19T16:33:56.354Z,0.60
2024-04-19T16:36:23.352Z,0.50
2024-04-19T16:38:52.562Z,0.68
2024-04-19T16:41:20.232Z,0.50
2024-04-19T16:43:47.285Z,0.50
2024-04-19T16:46:14.237Z,0.68
2024-04-19T16:48:41.419Z,0.60
2024-04-19T16:51:08.356Z,0.50
2024-04-19T16:53:35.234Z,0.70
2024-04-19T16:56:04.717Z,0.70
2024-04-19T16:58:33.097Z,0.50
2024-04-19T17:01:00.053Z,0.68
2024-04-19T17:03:27.009Z,0.60
2024-04-19T17:05:54.043Z,0.50
2024-04-19T17:08:21.071Z,0.47
2024-04-19T17:10:48.080Z,0.43
2024-04-19T17:13:14.978Z,0.50
2024-04-19T17:15:41.874Z,0.50
2024-04-19T17:18:08.745Z,0.60
2024-04-19T17:20:41.755Z,0.50
2024-04-19T17:23:08.795Z,0.52
2024-04-19T17:25:35.766Z,0.40
2024-04-19T17:28:03.731Z,0.50
2024-04-19T17:30:30.770Z,0.70
2024-04-19T17:32:57.795Z,0.73
2024-04-19T17:35:24.686Z,0.50
2024-04-19T17:37:51.542Z,0.40
2024-04-19T17:40:18.471Z,0.50
2024-04-19T17:42:45.434Z,0.60
2024-04-19T17:45:12.300Z,0.60
2024-04-19T17:47:39.209Z,0.60
2024-04-19T17:50:06.519Z,0.70
2024-04-19T17:52:33.391Z,0.45
2024-04-19T17:55:00.353Z,0.70
2024-04-19T17:57:29.266Z,0.40
2024-04-19T17:59:56.218Z,0.50
2024-04-19T18:02:23.408Z,0.60
2024-04-19T18:04:50.406Z,0.43
2024-04-19T18:07:18.094Z,0.40
2024-04-19T18:09:45.059Z,0.40
2024-04-19T18:12:12.094Z,0.50
2024-04-19T18:14:38.956Z,0.40
2024-04-19T18:17:05.891Z,0.50
2024-04-19T18:19:32.818Z,0.40
2024-04-19T18:21:59.770Z,0.50
2024-04-19T18:24:31.365Z,0.50
2024-04-19T18:27:00.605Z,0.60
2024-04-19T18:29:27.849Z,0.50
2024-04-19T18:31:55.092Z,0.50
2024-04-19T18:34:23.321Z,0.50
2024-04-19T18:36:50.184Z,0.50
2024-04-19T18:39:17.145Z,0.50
2024-04-19T18:41:45.465Z,0.45
2024-04-19T18:44:12.781Z,0.70
2024-04-19T18:46:39.606Z,0.50
2024-04-19T18:49:10.786Z,0.52
2024-04-19T18:51:38.109Z,0.50
2024-04-19T18:54:05.207Z,0.40
2024-04-19T18:56:32.152Z,0.70
2024-04-19T18:58:59.105Z,0.70
2024-04-19T19:01:26.264Z,0.50
2024-04-19T19:03:54.017Z,0.50
2024-04-19T19:06:21.544Z,0.60
2024-04-19T19:08:48.447Z,0.40
2024-04-19T19:11:16.094Z,0.80
2024-04-19T19:13:43.476Z,0.40
2024-04-19T19:16:10.905Z,0.50
2024-04-19T19:18:37.955Z,0.47
2024-04-19T19:21:05.260Z,0.50
2024-04-19T19:23:32.486Z,0.50
2024-04-19T19:26:04.795Z,0.57
2024-04-19T19:28:31.935Z,0.60
2024-04-19T19:30:59.808Z,0.70
2024-04-19T19:33:26.931Z,0.50
2024-04-19T19:35:58.550Z,0.40
2024-04-19T19:38:25.450Z,0.75
2024-04-19T19:40:52.491Z,0.50
2024-04-19T19:43:21.589Z,0.43
2024-04-19T19:45:55.736Z,0.60
2024-04-19T19:48:23.629Z,0.60
2024-04-19T19:51:01.610Z,0.68
2024-04-19T19:53:29.248Z,0.70
2024-04-19T19:55:58.132Z,0.73
2024-04-19T19:58:26.458Z,0.57
2024-04-19T20:01:12.234Z,0.60
2024-04-19T20:03:57.689Z,0.70
2024-04-19T20:06:24.863Z,0.70
2024-04-19T20:08:53.297Z,0.50
2024-04-19T20:11:20.354Z,0.60
2024-04-19T20:13:50.319Z,0.60
2024-04-19T20:16:18.718Z,0.82
2024-04-19T20:18:46.114Z,0.57
2024-04-19T20:21:13.178Z,0.60
2024-04-19T20:23:41.362Z,0.60
2024-04-19T20:26:10.480Z,0.70
2024-04-19T20:28:38.224Z,0.77
2024-04-19T20:31:05.353Z,0.60
2024-04-19T20:33:32.882Z,0.70
2024-04-19T20:35:59.776Z,0.70
2024-04-19T20:38:26.728Z,0.70
2024-04-19T20:40:56.871Z,0.70
2024-04-19T20:43:23.963Z,1.33
2024-04-19T20:45:50.872Z,0.60
2024-04-19T20:48:18.123Z,0.40
2024-04-19T20:50:51.068Z,0.60
2024-04-19T20:53:18.553Z,0.68
2024-04-19T20:55:45.503Z,0.70
2024-04-19T20:58:12.916Z,0.57
2024-04-19T21:00:40.068Z,0.52
2024-04-19T21:03:07.237Z,0.70
2024-04-19T21:05:34.193Z,0.55
2024-04-19T21:08:01.270Z,0.77
2024-04-19T21:10:28.228Z,0.60
2024-04-19T21:12:55.312Z,0.60
2024-04-19T21:15:22.426Z,0.63
2024-04-19T21:17:49.304Z,0.88
2024-04-19T21:20:16.271Z,0.70
2024-04-19T21:22:43.215Z,0.93
2024-04-19T21:25:10.119Z,0.70
2024-04-19T21:27:37.127Z,0.80
2024-04-19T21:30:04.390Z,0.60
2024-04-19T21:32:31.353Z,0.63
2024-04-19T21:34:58.297Z,1.05
2024-04-19T21:37:25.129Z,0.65
2024-04-19T21:39:55.314Z,0.70
2024-04-19T21:42:23.131Z,0.70
2024-04-19T21:44:54.562Z,0.68
2024-04-19T21:47:21.744Z,0.68
2024-04-19T21:49:48.650Z,0.60
2024-04-19T21:52:15.565Z,0.63
2024-04-19T21:54:43.254Z,0.50
2024-04-19T21:57:10.382Z,0.80
2024-04-19T21:59:37.345Z,0.70
2024-04-19T22:02:04.364Z,0.55
2024-04-19T22:04:31.635Z,0.70
2024-04-19T22:06:58.802Z,0.63
2024-04-19T22:09:25.701Z,0.60
2024-04-19T22:11:52.720Z,0.63
2024-04-19T22:14:19.611Z,0.60
2024-04-19T22:16:46.694Z,0.80
2024-04-19T22:19:14.186Z,0.80
2024-04-19T22:21:41.436Z,0.60
2024-04-19T22:24:08.577Z,0.60
2024-04-19T22:26:35.712Z,0.60
2024-04-19T22:29:02.749Z,0.60
2024-04-19T22:31:29.637Z,0.70
2024-04-19T22:33:56.809Z,0.57
2024-04-19T22:36:24.653Z,0.70
2024-04-19T22:38:51.881Z,0.60
2024-04-19T22:41:18.780Z,0.60
2024-04-19T22:43:45.821Z,0.80
2024-04-19T22:46:12.799Z,0.60
2024-04-19T22:48:40.973Z,0.50
2024-04-19T22:51:08.160Z,0.70
2024-04-19T22:53:35.253Z,0.70
2024-04-19T22:56:02.282Z,0.75
2024-04-19T22:58:29.209Z,0.82
2024-04-19T23:01:07.774Z,0.50
2024-04-19T23:03:35.183Z,0.57
2024-04-19T23:06:09.846Z,0.70
2024-04-19T23:08:37.357Z,0.80
2024-04-19T23:11:04.924Z,0.70
2024-04-19T23:13:32.246Z,0.73
2024-04-19T23:15:59.341Z,0.60
2024-04-19T23:18:26.368Z,0.60
2024-04-19T23:21:00.402Z,0.70
2024-04-19T23:23:27.733Z,0.70
2024-04-19T23:26:04.915Z,0.60
2024-04-19T23:28:32.928Z,0.80
2024-04-19T23:31:01.909Z,0.73
2024-04-19T23:33:31.022Z,0.60
2024-04-19T23:35:59.265Z,0.60
2024-04-19T23:38:27.083Z,0.57
2024-04-19T23:40:57.519Z,0.60
2024-04-19T23:43:27.856Z,0.52
2024-04-19T23:45:54.776Z,0.60
2024-04-19T23:48:21.862Z,0.60
2024-04-19T23:50:48.884Z,0.70
2024-04-19T23:53:15.732Z,0.63
2024-04-19T23:55:42.551Z,0.70
2024-04-19T23:58:09.491Z,0.57
